Time;durP1;ratioP1;P1;durP2;ratioP2;P2;SDS_P1;SDS_P2;PMS_P1;PMS_P2;Temp;Humidity;BMP_temperature;BMP_pressure;BME280_temperature;BME280_humidity;BME280_pressure;Samples;Min_cycle;Max_cycle;Signal;HPM_P1;HPM_P2
2023/04/09 00:01:04;;;;;;;33.47;23.38;;;8.20;99.90;;;;;;4969515;28;20248;-44
2023/04/09 00:03:30;;;;;;;34.58;24.63;;;8.10;99.90;;;;;;4951577;28;20182;-44
2023/04/09 00:05:55;;;;;;;35.10;22.50;;;8.00;99.90;;;;;;4952833;28;20224;-43
2023/04/09 00:08:22;;;;;;;38.22;23.48;;;;;;;;;;4950888;28;20316;-41
2023/04/09 00:10:48;;;;;;;55.08;31.02;;;;;;;;;;4952296;28;20229;-41
2023/04/09 00:13:14;;;;;;;35.83;24.27;;;7.90;99.90;;;;;;4951370;28;20210;-41
2023/04/09 00:15:40;;;;;;;35.75;21.40;;;8.00;99.90;;;;;;4951469;28;20166;-41
2023/04/09 00:18:06;;;;;;;30.55;21.35;;;;;;;;;;4951387;28;20205;-41
2023/04/09 00:20:31;;;;;;;53.40;34.08;;;7.90;99.90;;;;;;4951607;28;20170;-41
2023/04/09 00:22:57;;;;;;;38.17;24.20;;;7.80;99.90;;;;;;4951474;28;20167;-42
2023/04/09 00:25:23;;;;;;;42.63;26.50;;;7.80;99.90;;;;;;4951670;28;20188;-41
2023/04/09 00:27:48;;;;;;;46.80;29.35;;;7.70;99.90;;;;;;4951827;28;20174;-40
2023/04/09 00:30:15;;;;;;;37.88;24.02;;;7.80;99.90;;;;;;4951667;28;20497;-42
2023/04/09 00:32:41;;;;;;;35.78;23.02;;;;;;;;;;4982373;28;20181;-41
2023/04/09 00:35:07;;;;;;;33.67;22.65;;;7.90;99.90;;;;;;4989631;28;20177;-41
2023/04/09 00:37:33;;;;;;;31.00;21.33;;;7.80;99.90;;;;;;4989972;28;20200;-41
2023/04/09 00:39:59;;;;;;;33.00;21.73;;;7.70;99.90;;;;;;4989876;28;20377;-42
2023/04/09 00:42:26;;;;;;;27.30;19.45;;;7.60;99.90;;;;;;4990107;28;20291;-41
2023/04/09 00:44:51;;;;;;;29.80;19.92;;;7.50;99.90;;;;;;4989658;28;20176;-44
2023/04/09 00:47:17;;;;;;;28.15;19.23;;;7.50;99.90;;;;;;4990369;28;20165;-41
2023/04/09 00:49:43;;;;;;;30.77;19.88;;;;;;;;;;4989641;28;20177;-41
2023/04/09 00:52:09;;;;;;;32.50;19.50;;;;;;;;;;4989861;28;20168;-42
2023/04/09 00:54:35;;;;;;;28.00;20.35;;;7.50;99.90;;;;;;4989877;28;20176;-41
2023/04/09 00:57:02;;;;;;;32.45;21.02;;;7.40;99.90;;;;;;4988513;28;20169;-42
2023/04/09 00:59:27;;;;;;;31.63;21.45;;;7.50;99.90;;;;;;4989485;28;20204;-41
2023/04/09 01:01:54;;;;;;;33.92;21.17;;;;;;;;;;4977779;28;20664;-40
2023/04/09 01:04:21;;;;;;;34.55;22.58;;;7.50;99.90;;;;;;4970713;28;20173;-40
2023/04/09 01:06:47;;;;;;;30.80;21.08;;;;;;;;;;4969287;28;20208;-41
2023/04/09 01:09:32;;;;;;;31.98;21.35;;;7.40;99.90;;;;;;4933096;28;1097135;-42
2023/04/09 01:12:16;;;;;;;35.88;22.17;;;7.30;99.90;;;;;;4971070;28;20252;-42
2023/04/09 01:14:53;;;;;;;30.15;20.42;;;7.30;99.90;;;;;;4971082;28;20641;-42
2023/04/09 01:17:30;;;;;;;30.17;19.88;;;7.10;99.90;;;;;;4972349;28;20177;-41
2023/04/09 01:20:10;;;;;;;27.45;19.15;;;7.30;99.90;;;;;;4970879;28;20181;-41
2023/04/09 01:22:41;;;;;;;26.55;18.73;;;7.20;99.90;;;;;;4971082;28;20162;-41
2023/04/09 01:25:27;;;;;;;30.65;20.40;;;7.10;99.90;;;;;;4971068;28;20181;-41
2023/04/09 01:28:21;;;;;;;27.83;18.77;;;7.10;99.90;;;;;;4970773;28;20180;-41
2023/04/09 01:30:55;;;;;;;29.98;18.45;;;7.10;99.90;;;;;;4972078;28;20177;-41
2023/04/09 01:33:21;;;;;;;30.20;19.52;;;;;;;;;;4988970;28;20172;-41
2023/04/09 01:35:48;;;;;;;29.77;20.02;;;7.20;99.90;;;;;;4990401;28;20251;-41
2023/04/09 01:38:16;;;;;;;30.45;19.58;;;7.10;99.90;;;;;;4989152;28;20559;-41
2023/04/09 01:40:42;;;;;;;35.20;21.98;;;7.10;99.90;;;;;;4990028;28;20285;-42
2023/04/09 01:43:09;;;;;;;32.63;21.70;;;7.20;99.90;;;;;;4989907;28;20176;-41
2023/04/09 01:45:35;;;;;;;37.10;21.77;;;7.30;99.90;;;;;;4989980;28;20164;-40
2023/04/09 01:48:02;;;;;;;30.25;20.05;;;7.20;99.90;;;;;;4990189;28;20260;-40
2023/04/09 01:50:28;;;;;;;29.98;20.55;;;7.30;99.90;;;;;;4990038;28;20165;-40
2023/04/09 01:52:54;;;;;;;31.33;20.42;;;7.30;99.90;;;;;;4990130;28;20637;-40
2023/04/09 01:55:20;;;;;;;29.88;18.77;;;7.30;99.90;;;;;;4990214;28;20184;-40
2023/04/09 01:57:46;;;;;;;26.33;17.55;;;;;;;;;;4990342;28;20288;-41
2023/04/09 02:00:12;;;;;;;26.83;18.40;;;7.30;99.90;;;;;;4978170;28;20178;-44
2023/04/09 02:02:47;;;;;;;26.00;18.50;;;7.30;99.90;;;;;;4970369;28;20180;-44
2023/04/09 02:05:16;;;;;;;27.70;17.33;;;7.30;99.90;;;;;;4970260;28;20242;-44
2023/04/09 02:07:46;;;;;;;28.15;18.42;;;7.20;99.90;;;;;;4970212;28;20656;-44
2023/04/09 02:10:12;;;;;;;28.27;19.50;;;7.20;99.90;;;;;;4970257;28;20212;-45
2023/04/09 02:12:41;;;;;;;33.22;20.08;;;7.20;99.90;;;;;;4970057;28;20256;-45
2023/04/09 02:15:08;;;;;;;32.05;19.85;;;7.30;99.90;;;;;;4970346;28;20181;-44
2023/04/09 02:17:34;;;;;;;26.13;18.10;;;7.20;99.90;;;;;;4970185;28;20181;-40
2023/04/09 02:19:59;;;;;;;25.45;17.90;;;7.10;99.90;;;;;;4970178;28;20314;-41
2023/04/09 02:22:25;;;;;;;27.88;17.50;;;7.10;99.90;;;;;;4969863;28;20169;-42
2023/04/09 02:24:51;;;;;;;28.40;19.48;;;;;;;;;;4970247;28;20166;-41
2023/04/09 02:27:16;;;;;;;28.80;19.70;;;7.10;99.90;;;;;;4970432;28;20695;-41
2023/04/09 02:29:42;;;;;;;28.42;18.75;;;7.00;99.90;;;;;;4976964;28;20511;-41
2023/04/09 02:32:08;;;;;;;27.52;19.30;;;;;;;;;;4989704;28;20176;-41
2023/04/09 02:34:34;;;;;;;29.95;19.42;;;;;;;;;;4989314;28;20200;-41
2023/04/09 02:36:59;;;;;;;29.58;20.13;;;7.10;99.90;;;;;;4989429;28;20179;-41
2023/04/09 02:39:26;;;;;;;31.83;20.73;;;;;;;;;;4989077;28;20281;-41
2023/04/09 02:41:52;;;;;;;30.85;20.08;;;;;;;;;;4989340;28;20169;-41
2023/04/09 02:44:18;;;;;;;29.58;19.67;;;;;;;;;;4989291;28;20655;-41
2023/04/09 02:46:45;;;;;;;27.35;19.63;;;6.90;99.90;;;;;;4988918;28;20172;-41
2023/04/09 02:49:10;;;;;;;29.05;20.63;;;6.90;99.90;;;;;;4988679;28;20259;-40
2023/04/09 02:51:36;;;;;;;31.60;20.98;;;6.90;99.90;;;;;;4989053;28;20251;-42
2023/04/09 02:54:03;;;;;;;26.98;17.33;;;6.70;99.90;;;;;;4989086;28;20168;-41
2023/04/09 02:56:29;;;;;;;24.67;16.48;;;;;;;;;;4989251;28;20260;-41
2023/04/09 02:58:54;;;;;;;20.67;14.25;;;6.50;99.90;;;;;;4987841;28;20232;-41
2023/04/09 03:01:20;;;;;;;20.40;14.63;;;6.50;99.90;;;;;;4969592;28;20205;-41
2023/04/09 03:03:46;;;;;;;21.88;15.95;;;6.50;99.90;;;;;;4969780;28;20227;-40
2023/04/09 03:06:12;;;;;;;23.77;16.13;;;6.30;99.90;;;;;;4969491;28;20234;-41
2023/04/09 03:08:38;;;;;;;25.52;16.80;;;6.40;99.90;;;;;;4969178;28;20218;-41
2023/04/09 03:11:03;;;;;;;24.17;15.85;;;6.40;99.90;;;;;;4969424;28;20181;-41
2023/04/09 03:13:29;;;;;;;29.60;17.30;;;6.40;99.90;;;;;;4969246;28;20252;-41
2023/04/09 03:15:55;;;;;;;25.65;17.60;;;6.40;99.90;;;;;;4969315;28;20165;-41
2023/04/09 03:18:21;;;;;;;24.35;16.05;;;;;;;;;;4969332;28;20209;-41
2023/04/09 03:20:46;;;;;;;26.92;17.98;;;6.30;99.90;;;;;;4966599;28;20184;-41
2023/04/09 03:23:12;;;;;;;32.60;19.77;;;6.50;99.90;;;;;;4954989;28;20178;-41
2023/04/09 03:25:37;;;;;;;28.23;19.05;;;6.30;99.90;;;;;;4969225;28;20185;-41
2023/04/09 03:28:03;;;;;;;27.63;17.83;;;6.30;99.90;;;;;;4969199;28;20536;-41
2023/04/09 03:30:29;;;;;;;24.92;17.65;;;6.30;99.90;;;;;;4969158;28;20582;-41
2023/04/09 03:32:54;;;;;;;26.35;16.60;;;6.30;99.90;;;;;;4969114;28;20166;-41
2023/04/09 03:35:20;;;;;;;28.75;16.95;;;6.20;99.90;;;;;;4969039;28;20223;-40
2023/04/09 03:37:46;;;;;;;28.40;17.52;;;6.20;99.90;;;;;;4969561;28;20562;-41
2023/04/09 03:40:12;;;;;;;26.42;17.42;;;6.10;99.90;;;;;;4982848;28;20700;-41
2023/04/09 03:42:37;;;;;;;28.00;19.35;;;6.10;99.90;;;;;;4988610;28;20500;-41
2023/04/09 03:45:04;;;;;;;29.15;17.83;;;6.10;99.90;;;;;;4988322;28;20184;-41
2023/04/09 03:47:30;;;;;;;62.10;19.17;;;;;;;;;;4988605;28;20252;-41
2023/04/09 03:49:55;;;;;;;27.55;17.15;;;5.90;99.90;;;;;;4988286;28;20625;-41
2023/04/09 03:52:21;;;;;;;25.80;17.55;;;6.00;99.90;;;;;;4988229;28;20165;-40
2023/04/09 03:54:46;;;;;;;26.88;16.15;;;6.00;99.90;;;;;;4988760;28;20207;-41
2023/04/09 03:57:12;;;;;;;24.33;16.45;;;6.00;99.90;;;;;;4988228;28;20185;-41
2023/04/09 03:59:37;;;;;;;19.02;12.88;;;6.00;99.90;;;;;;4988047;28;20212;-41
2023/04/09 04:02:03;;;;;;;16.63;12.75;;;5.80;99.90;;;;;;4989795;28;20172;-41
2023/04/09 04:04:29;;;;;;;15.85;11.88;;;6.00;99.90;;;;;;4991421;28;20187;-41
2023/04/09 04:06:55;;;;;;;50.35;28.55;;;;;;;;;;4991624;28;20165;-42
2023/04/09 04:09:20;;;;;;;43.33;25.63;;;5.80;99.90;;;;;;4983310;28;20225;-42
2023/04/09 04:11:46;;;;;;;46.42;26.45;;;5.80;99.90;;;;;;4972220;28;20177;-42
2023/04/09 04:14:12;;;;;;;43.13;26.23;;;5.80;99.90;;;;;;4971975;28;20181;-41
2023/04/09 04:16:40;;;;;;;52.45;34.20;;;5.80;99.90;;;;;;4972041;28;20180;-43
2023/04/09 04:19:05;;;;;;;48.05;31.25;;;;;;;;;;4972032;28;20209;-42
2023/04/09 04:21:31;;;;;;;45.85;27.27;;;5.80;99.90;;;;;;4971958;28;20713;-42
2023/04/09 04:23:57;;;;;;;34.60;20.98;;;5.80;99.90;;;;;;4971820;28;20547;-44
2023/04/09 04:26:23;;;;;;;29.45;19.67;;;;;;;;;;4971723;28;20197;-41
2023/04/09 04:28:48;;;;;;;33.08;20.05;;;5.80;99.90;;;;;;4972048;28;20177;-42
2023/04/09 04:31:14;;;;;;;26.13;16.92;;;;;;;;;;4971553;28;20170;-43
2023/04/09 04:33:41;;;;;;;23.13;15.73;;;5.60;99.90;;;;;;4971698;28;20166;-41
2023/04/09 04:36:12;;;;;;;19.77;11.90;;;5.60;99.90;;;;;;4971543;28;20303;-42
2023/04/09 04:38:40;;;;;;;18.52;12.20;;;5.50;99.90;;;;;;4973245;28;20248;-41
2023/04/09 04:41:05;;;;;;;16.55;11.63;;;5.50;99.90;;;;;;4988942;28;20533;-41
2023/04/09 04:43:31;;;;;;;14.55;10.60;;;5.30;99.90;;;;;;4990977;28;20173;-41
2023/04/09 04:45:57;;;;;;;12.13;9.80;;;5.40;99.90;;;;;;4991091;28;20568;-42
2023/04/09 04:48:23;;;;;;;12.57;9.80;;;5.30;99.90;;;;;;4990907;28;20633;-41
2023/04/09 04:50:58;;;;;;;12.63;9.50;;;3.80;99.90;;;;;;4990981;28;20294;-41
2023/04/09 04:53:24;;;;;;;24.98;14.02;;;5.30;99.90;;;;;;4990907;28;20175;-41
2023/04/09 04:55:50;;;;;;;28.63;13.50;;;;;;;;;;4990910;28;20173;-41
2023/04/09 04:58:16;;;;;;;32.13;12.20;;;5.20;99.90;;;;;;4991167;28;20211;-41
2023/04/09 05:00:41;;;;;;;17.80;12.68;;;5.20;99.90;;;;;;4990896;28;20169;-40
2023/04/09 05:03:07;;;;;;;16.48;10.43;;;5.30;99.90;;;;;;4990675;28;20655;-40
2023/04/09 05:05:33;;;;;;;13.43;10.98;;;5.30;99.90;;;;;;4990481;28;20179;-41
2023/04/09 05:07:59;;;;;;;15.18;10.57;;;;;;;;;;4990519;28;20239;-40
2023/04/09 05:10:25;;;;;;;15.73;10.48;;;5.30;99.90;;;;;;4972393;28;20336;-40
2023/04/09 05:12:50;;;;;;;18.05;11.00;;;5.50;99.90;;;;;;4989592;28;20165;-40
2023/04/09 05:15:16;;;;;;;14.40;11.20;;;5.40;99.90;;;;;;4990568;28;20201;-40
2023/04/09 05:17:42;;;;;;;14.88;11.65;;;5.50;99.90;;;;;;4990339;28;20161;-40
2023/04/09 05:20:09;;;;;;;19.98;14.50;;;5.50;99.90;;;;;;4990441;28;20177;-41
2023/04/09 05:22:35;;;;;;;19.23;13.75;;;;;;;;;;4990678;28;20165;-41
2023/04/09 05:25:01;;;;;;;18.73;13.95;;;;;;;;;;4989079;28;20264;-41
2023/04/09 05:27:27;;;;;;;19.95;11.93;;;5.50;99.90;;;;;;4990354;28;20197;-40
2023/04/09 05:29:53;;;;;;;17.65;12.88;;;5.50;99.90;;;;;;4973621;28;20579;-40
2023/04/09 05:32:19;;;;;;;19.05;13.18;;;;;;;;;;4971191;28;20166;-41
2023/04/09 05:34:45;;;;;;;19.02;13.27;;;5.60;99.90;;;;;;4970983;28;20174;-40
2023/04/09 05:37:10;;;;;;;15.15;11.98;;;5.60;99.90;;;;;;4970622;28;20176;-40
2023/04/09 05:39:36;;;;;;;13.38;10.70;;;5.70;99.90;;;;;;4970483;28;20205;-40
2023/04/09 05:42:02;;;;;;;14.65;11.32;;;;;;;;;;4970860;28;20188;-41
2023/04/09 05:44:28;;;;;;;14.25;11.40;;;;;;;;;;4970710;28;20315;-41
2023/04/09 05:46:54;;;;;;;15.90;12.18;;;;;;;;;;4970541;28;20668;-40
2023/04/09 05:49:20;;;;;;;16.80;12.13;;;;;;;;;;4984044;28;20242;-41
2023/04/09 05:51:45;;;;;;;16.33;12.23;;;5.70;99.90;;;;;;4990405;28;20172;-40
2023/04/09 05:54:11;;;;;;;15.88;12.55;;;5.70;99.90;;;;;;4989825;28;20165;-40
2023/04/09 05:56:36;;;;;;;16.52;12.82;;;5.70;99.90;;;;;;4989878;28;20173;-40
2023/04/09 05:59:02;;;;;;;16.00;12.70;;;;;;;;;;4989677;28;20706;-40
2023/04/09 06:01:28;;;;;;;17.23;12.68;;;5.80;99.90;;;;;;4989790;28;20165;-40
2023/04/09 06:03:54;;;;;;;16.48;13.05;;;;;;;;;;4990188;28;20260;-41
2023/04/09 06:06:20;;;;;;;17.15;13.40;;;;;;;;;;4989544;28;20172;-40
2023/04/09 06:08:46;;;;;;;18.20;13.90;;;6.10;99.90;;;;;;4989298;28;20304;-40
2023/04/09 06:11:12;;;;;;;17.40;12.93;;;6.30;99.90;;;;;;4989532;28;20161;-40
2023/04/09 06:13:38;;;;;;;15.38;12.05;;;;;;;;;;4989585;28;20664;-40
2023/04/09 06:16:07;;;;;;;18.00;13.25;;;6.50;99.90;;;;;;4989707;28;20258;-40
2023/04/09 06:18:33;;;;;;;17.00;13.40;;;6.60;99.90;;;;;;4989172;28;20219;-40
2023/04/09 06:21:07;;;;;;;21.80;14.25;;;6.60;99.90;;;;;;4989452;28;20161;-40
2023/04/09 06:23:35;;;;;;;21.20;14.88;;;6.80;99.90;;;;;;4989325;28;20230;-40
2023/04/09 06:26:01;;;;;;;20.15;14.85;;;6.80;99.90;;;;;;4989095;28;20793;-40
2023/04/09 06:28:30;;;;;;;21.17;14.55;;;7.00;99.90;;;;;;4989229;28;20530;-40
2023/04/09 06:30:56;;;;;;;22.27;15.45;;;;;;;;;;4989110;28;20183;-40
2023/04/09 06:33:22;;;;;;;23.48;16.35;;;7.20;99.90;;;;;;4989563;28;20177;-40
2023/04/09 06:35:48;;;;;;;24.67;16.50;;;7.50;99.90;;;;;;4989451;28;20175;-40
2023/04/09 06:38:14;;;;;;;24.50;16.83;;;;;;;;;;4985667;28;20255;-40
2023/04/09 06:40:41;;;;;;;24.30;15.95;;;;;;;;;;4969309;28;20181;-41
2023/04/09 06:43:08;;;;;;;23.42;16.90;;;;;;;;;;4969827;28;20238;-41
2023/04/09 06:45:34;;;;;;;22.85;15.27;;;7.60;99.90;;;;;;4969811;28;20188;-40
2023/04/09 06:48:00;;;;;;;22.65;15.48;;;7.60;99.90;;;;;;4969662;28;20177;-40
2023/04/09 06:50:26;;;;;;;26.02;15.35;;;7.60;99.90;;;;;;4970045;28;20252;-41
2023/04/09 06:52:52;;;;;;;23.00;15.75;;;7.80;99.90;;;;;;4968832;28;20180;-41
2023/04/09 06:55:18;;;;;;;22.33;15.27;;;8.10;99.90;;;;;;4970204;28;20162;-41
2023/04/09 06:57:46;;;;;;;23.00;14.93;;;8.20;99.90;;;;;;4970217;28;20181;-42
2023/04/09 07:00:12;;;;;;;26.45;16.35;;;8.30;99.90;;;;;;4969589;28;20178;-41
2023/04/09 07:02:38;;;;;;;20.45;14.75;;;8.40;99.90;;;;;;4969369;28;20172;-40
2023/04/09 07:05:04;;;;;;;21.75;15.05;;;;;;;;;;4969552;28;20185;-41
2023/04/09 07:07:30;;;;;;;17.77;13.50;;;;;;;;;;4968229;28;20572;-40
2023/04/09 07:09:56;;;;;;;19.08;13.82;;;8.60;99.90;;;;;;4970462;28;20707;-43
2023/04/09 07:12:26;;;;;;;21.55;13.88;;;8.60;99.90;;;;;;4969578;28;20170;-44
2023/04/09 07:14:52;;;;;;;19.60;13.30;;;;;;;;;;4969336;28;20534;-41
2023/04/09 07:17:19;;;;;;;19.55;12.50;;;;;;;;;;4969327;28;20169;-44
2023/04/09 07:19:44;;;;;;;20.35;12.88;;;8.80;99.90;;;;;;4969945;28;20242;-41
2023/04/09 07:22:10;;;;;;;17.73;12.25;;;9.00;99.90;;;;;;4969464;28;20629;-41
2023/04/09 07:24:36;;;;;;;21.95;13.05;;;9.10;99.90;;;;;;4969157;28;20169;-41
2023/04/09 07:27:04;;;;;;;17.17;11.77;;;9.00;99.90;;;;;;4969371;28;20187;-40
2023/04/09 07:29:30;;;;;;;16.70;11.65;;;9.10;99.90;;;;;;4985630;28;20656;-44
2023/04/09 07:31:55;;;;;;;17.45;12.02;;;9.20;99.90;;;;;;4988653;28;20176;-44
2023/04/09 07:34:21;;;;;;;16.35;11.48;;;9.20;99.90;;;;;;4988523;28;20628;-44
2023/04/09 07:36:47;;;;;;;18.60;12.40;;;9.20;99.90;;;;;;4989967;28;20173;-42
2023/04/09 07:39:12;;;;;;;16.45;11.80;;;9.60;99.90;;;;;;4991891;28;20574;-44
2023/04/09 07:41:38;;;;;;;14.77;10.30;;;9.40;99.90;;;;;;4992086;28;20161;-43
2023/04/09 07:44:05;;;;;;;15.60;10.00;;;9.70;99.90;;;;;;4992316;28;20181;-42
2023/04/09 07:46:30;;;;;;;16.17;11.48;;;9.70;99.90;;;;;;4991497;28;20177;-41
2023/04/09 07:48:56;;;;;;;14.45;10.63;;;9.90;99.90;;;;;;4977530;28;20177;-41
2023/04/09 07:51:21;;;;;;;14.55;10.70;;;10.00;99.90;;;;;;4972558;28;20178;-41
2023/04/09 07:53:47;;;;;;;16.10;11.25;;;10.20;99.90;;;;;;4972945;28;20184;-41
2023/04/09 07:56:12;;;;;;;16.40;11.38;;;10.30;99.90;;;;;;4972631;28;20248;-41
2023/04/09 07:58:38;;;;;;;13.75;10.02;;;10.30;99.90;;;;;;4972707;28;20300;-41
2023/04/09 08:01:04;;;;;;;13.95;9.95;;;10.30;99.90;;;;;;4972493;28;20169;-41
2023/04/09 08:03:29;;;;;;;13.30;10.32;;;10.30;99.90;;;;;;4972347;28;20177;-41
2023/04/09 08:05:55;;;;;;;13.95;9.65;;;10.40;99.90;;;;;;4972582;28;20205;-44
2023/04/09 08:08:21;;;;;;;12.48;9.35;;;;;;;;;;4983838;28;20245;-43
2023/04/09 08:10:46;;;;;;;14.20;9.73;;;10.70;99.90;;;;;;4976800;28;20177;-44
2023/04/09 08:13:12;;;;;;;13.95;8.52;;;;;;;;;;4972272;28;20177;-43
2023/04/09 08:15:38;;;;;;;13.30;9.80;;;11.00;99.90;;;;;;4971928;28;20173;-44
2023/04/09 08:18:04;;;;;;;12.10;9.02;;;11.00;99.90;;;;;;4971879;28;20212;-45
2023/04/09 08:20:31;;;;;;;12.05;9.23;;;11.10;99.90;;;;;;4972199;28;20268;-45
2023/04/09 08:22:58;;;;;;;12.68;9.45;;;;;;;;;;4971940;28;20181;-45
2023/04/09 08:25:23;;;;;;;12.05;8.68;;;11.50;99.90;;;;;;4972280;28;20213;-41
2023/04/09 08:27:49;;;;;;;10.50;9.00;;;;;;;;;;4971706;28;20201;-45
2023/04/09 08:30:15;;;;;;;13.88;9.40;;;11.40;99.90;;;;;;4972463;28;20173;-43
2023/04/09 08:32:43;;;;;;;14.80;10.15;;;;;;;;;;4971768;28;20169;-45
2023/04/09 08:35:09;;;;;;;15.05;9.63;;;11.60;99.90;;;;;;4972005;28;20510;-45
2023/04/09 08:37:34;;;;;;;10.93;8.43;;;11.90;99.90;;;;;;4971894;28;20700;-45
2023/04/09 08:40:00;;;;;;;15.18;9.32;;;12.00;99.90;;;;;;4971622;28;20261;-45
2023/04/09 08:42:26;;;;;;;12.15;8.88;;;11.80;99.90;;;;;;4971528;28;20205;-42
2023/04/09 08:44:52;;;;;;;13.07;9.43;;;;;;;;;;4971435;28;20165;-45
2023/04/09 08:47:19;;;;;;;13.82;9.25;;;12.20;99.90;;;;;;4971249;28;20544;-42
2023/04/09 08:49:47;;;;;;;12.63;8.60;;;12.20;99.90;;;;;;4972006;28;20176;-41
2023/04/09 08:52:15;;;;;;;11.45;8.07;;;12.20;99.90;;;;;;4971275;28;20689;-42
2023/04/09 08:54:40;;;;;;;12.38;8.80;;;12.50;99.90;;;;;;4971866;28;20181;-42
2023/04/09 08:57:06;;;;;;;11.50;8.30;;;;;;;;;;4971281;28;20177;-42
2023/04/09 08:59:35;;;;;;;11.55;8.30;;;12.50;99.90;;;;;;4971051;28;20279;-41
2023/04/09 09:02:10;;;;;;;10.70;8.30;;;12.60;99.90;;;;;;4971509;28;20165;-41
2023/04/09 09:04:47;;;;;;;10.70;8.05;;;12.50;99.90;;;;;;4971529;28;20177;-42
2023/04/09 09:07:14;;;;;;;9.63;6.47;;;12.70;99.90;;;;;;4972244;28;20184;-42
2023/04/09 09:09:57;;;;;;;8.02;6.05;;;12.80;99.90;;;;;;4971055;28;20278;-41
2023/04/09 09:12:41;;;;;;;8.15;6.55;;;12.80;99.90;;;;;;4971084;28;20525;-42
2023/04/09 09:15:29;;;;;;;7.75;6.05;;;12.70;99.90;;;;;;4971531;28;20181;-42
2023/04/09 09:17:57;;;;;;;9.43;6.45;;;13.10;99.90;;;;;;4971085;28;20185;-42
2023/04/09 09:20:24;;;;;;;8.77;6.88;;;13.20;99.90;;;;;;4970981;28;20222;-42
2023/04/09 09:22:52;;;;;;;7.00;5.30;;;13.30;99.90;;;;;;4970988;28;20243;-42
2023/04/09 09:25:22;;;;;;;5.90;4.88;;;;;;;;;;4969895;28;20534;-42
2023/04/09 09:27:47;;;;;;;8.20;5.93;;;;;;;;;;4971011;28;20168;-41
2023/04/09 09:30:23;;;;;;;7.88;5.60;;;13.40;99.90;;;;;;4971177;28;20653;-41
2023/04/09 09:33:03;;;;;;;8.88;5.78;;;13.50;99.90;;;;;;4971277;28;20188;-42
2023/04/09 09:35:29;;;;;;;5.50;4.65;;;13.30;99.90;;;;;;4970751;28;20165;-42
2023/04/09 09:38:03;;;;;;;6.82;5.50;;;13.50;99.90;;;;;;4980523;28;20658;-42
2023/04/09 09:40:28;;;;;;;6.60;5.15;;;13.70;99.90;;;;;;4989938;28;20192;-42
2023/04/09 09:42:57;;;;;;;6.60;5.15;;;13.90;99.90;;;;;;4990108;28;20169;-43
2023/04/09 09:45:24;;;;;;;6.30;5.18;;;14.00;99.90;;;;;;4990122;28;20173;-42
2023/04/09 09:47:52;;;;;;;7.65;4.70;;;14.10;99.90;;;;;;4990594;28;20177;-45
2023/04/09 09:50:18;;;;;;;6.30;5.07;;;13.90;99.90;;;;;;4989977;28;20181;-42
2023/04/09 09:52:46;;;;;;;6.57;5.20;;;14.00;99.90;;;;;;4990207;28;20184;-42
2023/04/09 09:55:16;;;;;;;4.97;4.20;;;14.10;99.90;;;;;;4989021;28;20664;-41
2023/04/09 09:57:46;;;;;;;6.03;5.13;;;14.00;99.90;;;;;;4990165;28;20255;-43
2023/04/09 10:00:13;;;;;;;5.55;4.60;;;14.20;99.90;;;;;;4971570;28;20660;-42
2023/04/09 10:02:56;;;;;;;7.57;5.15;;;13.80;99.90;;;;;;4988458;28;20173;-42
2023/04/09 10:05:25;;;;;;;7.85;5.75;;;14.10;99.90;;;;;;4989851;28;20177;-42
2023/04/09 10:07:53;;;;;;;6.28;4.80;;;14.20;99.90;;;;;;4970765;28;20215;-44
2023/04/09 10:10:20;;;;;;;5.57;4.95;;;14.20;99.90;;;;;;4949814;28;20652;-42
2023/04/09 10:12:46;;;;;;;6.20;5.20;;;;;;;;;;4959535;28;20185;-45
2023/04/09 10:15:12;;;;;;;6.18;5.55;;;14.40;99.90;;;;;;4968887;28;20181;-42
2023/04/09 10:17:37;;;;;;;7.45;4.82;;;14.50;99.90;;;;;;4970461;28;20201;-42
2023/04/09 10:20:18;;;;;;;6.63;5.30;;;14.50;99.90;;;;;;4970187;28;20237;-42
2023/04/09 10:22:48;;;;;;;5.97;5.10;;;14.70;99.90;;;;;;4970688;28;20165;-42
2023/04/09 10:25:15;;;;;;;7.28;5.70;;;;;;;;;;4970309;28;20622;-42
2023/04/09 10:27:45;;;;;;;10.27;5.95;;;;;;;;;;4969950;28;20629;-42
2023/04/09 10:30:33;;;;;;;5.93;5.25;;;14.70;99.90;;;;;;4970064;28;20169;-42
2023/04/09 10:33:14;;;;;;;5.43;4.82;;;15.00;99.90;;;;;;4969898;28;20637;-42
2023/04/09 10:35:41;;;;;;;6.35;5.30;;;14.90;99.90;;;;;;4969971;28;20218;-42
2023/04/09 10:38:08;;;;;;;18.27;6.10;;;14.80;99.90;;;;;;4969783;28;20201;-41
2023/04/09 10:40:35;;;;;;;5.72;5.00;;;14.90;99.90;;;;;;4970074;28;20264;-42
2023/04/09 10:43:02;;;;;;;7.90;5.47;;;;;;;;;;4970059;28;20209;-42
2023/04/09 10:45:39;;;;;;;6.40;5.65;;;14.80;99.90;;;;;;4969645;28;20510;-42
2023/04/09 10:48:05;;;;;;;6.80;5.88;;;14.90;99.90;;;;;;4969820;28;20214;-42
2023/04/09 10:50:32;;;;;;;6.60;5.72;;;15.20;99.90;;;;;;4969923;28;20169;-44
2023/04/09 10:52:59;;;;;;;7.82;6.05;;;15.20;99.90;;;;;;4969603;28;20170;-42
2023/04/09 10:55:40;;;;;;;8.52;5.70;;;14.50;99.00;;;;;;4969738;28;20554;-45
2023/04/09 10:58:08;;;;;;;6.78;5.50;;;14.60;99.40;;;;;;4969521;28;20247;-42
2023/04/09 11:00:40;;;;;;;7.47;5.13;;;14.50;99.60;;;;;;4969596;28;20193;-44
2023/04/09 11:03:19;;;;;;;5.65;4.85;;;15.00;99.90;;;;;;4969677;28;20181;-42
2023/04/09 11:05:51;;;;;;;7.55;5.40;;;15.20;98.10;;;;;;4970075;28;20169;-42
2023/04/09 11:08:17;;;;;;;6.05;5.40;;;;;;;;;;4983587;28;20276;-42
2023/04/09 11:10:46;;;;;;;9.38;5.22;;;15.30;98.30;;;;;;4972131;28;20260;-42
2023/04/09 11:13:14;;;;;;;6.78;5.43;;;15.60;98.20;;;;;;4973135;28;20192;-42
2023/04/09 11:15:40;;;;;;;7.13;5.70;;;15.30;96.30;;;;;;4972712;28;20210;-42
2023/04/09 11:18:08;;;;;;;8.05;6.07;;;;;;;;;;4972936;28;20280;-42
2023/04/09 11:20:34;;;;;;;8.20;6.55;;;15.60;97.50;;;;;;4972774;28;20177;-42
2023/04/09 11:23:00;;;;;;;12.27;8.10;;;15.40;97.70;;;;;;4972815;28;20197;-42
2023/04/09 11:25:30;;;;;;;11.95;9.40;;;15.20;97.10;;;;;;4972776;28;20250;-42
2023/04/09 11:27:56;;;;;;;10.95;8.40;;;15.20;97.10;;;;;;4972898;28;20174;-42
2023/04/09 11:30:22;;;;;;;8.93;7.70;;;;;;;;;;4972473;28;20184;-41
2023/04/09 11:32:49;;;;;;;6.13;5.53;;;15.60;97.80;;;;;;4972468;28;20669;-43
2023/04/09 11:35:16;;;;;;;6.85;5.80;;;15.50;96.30;;;;;;4973153;28;20181;-41
2023/04/09 11:37:43;;;;;;;5.43;4.93;;;15.30;96.70;;;;;;4981865;28;20199;-42
2023/04/09 11:40:21;;;;;;;8.25;5.53;;;15.10;97.20;;;;;;4991966;28;20668;-41
2023/04/09 11:42:52;;;;;;;14.82;13.30;;;15.10;98.10;;;;;;4990466;28;20524;-41
2023/04/09 11:45:20;;;;;;;11.27;10.10;;;14.90;96.30;;;;;;4991400;28;20177;-43
2023/04/09 11:47:46;;;;;;;9.05;7.43;;;15.10;97.20;;;;;;4991994;28;20179;-41
2023/04/09 11:50:13;;;;;;;19.52;17.58;;;15.20;97.70;;;;;;4992145;28;20185;-41
2023/04/09 11:52:40;;;;;;;7.25;6.20;;;15.50;96.80;;;;;;4991985;28;20172;-41
2023/04/09 11:55:09;;;;;;;17.58;15.38;;;15.30;97.00;;;;;;4991548;28;20663;-42
2023/04/09 11:57:42;;;;;;;7.32;6.38;;;15.10;98.40;;;;;;4991697;28;20183;-42
2023/04/09 12:00:12;;;;;;;8.05;7.18;;;15.10;98.40;;;;;;4991688;28;20304;-42
2023/04/09 12:02:46;;;;;;;8.05;6.50;;;15.00;98.50;;;;;;4991824;28;20188;-41
2023/04/09 12:05:24;;;;;;;6.68;6.03;;;15.70;98.80;;;;;;4991767;28;20584;-41
2023/04/09 12:07:50;;;;;;;8.02;5.90;;;15.90;96.60;;;;;;4981283;28;20176;-42
2023/04/09 12:10:16;;;;;;;8.75;6.95;;;;;;;;;;4972357;28;20186;-42
2023/04/09 12:12:46;;;;;;;7.30;6.60;;;15.80;95.70;;;;;;4972342;28;20166;-42
2023/04/09 12:15:19;;;;;;;9.27;8.23;;;16.00;97.20;;;;;;4972379;28;20602;-41
2023/04/09 12:17:54;;;;;;;6.15;5.40;;;15.90;95.90;;;;;;4972439;28;20212;-42
2023/04/09 12:20:46;;;;;;;6.85;5.60;;;16.00;94.30;;;;;;4971748;28;20173;-41
2023/04/09 12:23:13;;;;;;;6.93;6.15;;;16.30;96.80;;;;;;4974562;28;20189;-42
2023/04/09 12:25:40;;;;;;;6.75;5.32;;;16.40;94.00;;;;;;4971583;28;20173;-42
2023/04/09 12:28:07;;;;;;;17.42;15.05;;;16.50;94.80;;;;;;4972466;28;20243;-42
2023/04/09 12:30:33;;;;;;;10.50;8.68;;;;;;;;;;4989050;28;20183;-42
2023/04/09 12:32:59;;;;;;;8.15;7.32;;;16.40;95.20;;;;;;4991368;28;20607;-42
2023/04/09 12:35:25;;;;;;;8.10;7.30;;;16.20;95.00;;;;;;4991208;28;20204;-42
2023/04/09 12:37:51;;;;;;;6.30;5.68;;;;;;;;;;4990911;28;20523;-42
2023/04/09 12:40:18;;;;;;;9.02;6.10;;;16.00;95.10;;;;;;4990997;28;20513;-42
2023/04/09 12:42:45;;;;;;;6.63;5.93;;;16.10;96.40;;;;;;4991252;28;20165;-41
2023/04/09 12:45:13;;;;;;;6.88;6.10;;;16.30;94.60;;;;;;4991478;28;20177;-42
2023/04/09 12:47:38;;;;;;;7.80;6.28;;;15.80;95.10;;;;;;4978459;28;20238;-42
2023/04/09 12:50:06;;;;;;;7.50;5.90;;;15.70;96.00;;;;;;4971436;28;20256;-42
2023/04/09 12:52:31;;;;;;;7.97;5.97;;;15.60;95.80;;;;;;4971379;28;20169;-42
2023/04/09 12:54:57;;;;;;;7.60;6.15;;;15.90;95.70;;;;;;4971375;28;20178;-42
2023/04/09 12:57:23;;;;;;;7.32;6.40;;;;;;;;;;4971230;28;20201;-42
2023/04/09 12:59:49;;;;;;;6.82;5.88;;;16.20;95.50;;;;;;4971523;28;20579;-42